Charter Quote
Worldwide +1-877-727-2538 Call
Select Language Lang
SAFETY RELIABILITY EXPERIENCE

Private Jet Charter Services - Lhasa-Gonggar (ZULS)

Paramount Business Jets offers private jet charter flights and luxury airliner charters to and from Lhasa-Gonggar.

AIRPORT INFORMATION
ICAOZULS
LOCATIONLhasa, China
FACILITY TYPEAIRPORT

At Paramount Business Jets you can hire chartered private jets to and from Lhasa-Gonggar with as little as 4 hours of notice. All flights booked via Paramount Business Jets are operated by certified direct air carriers that meet and exceed the FAA part 135 and 121 protocol or a foreign equivalent safety authority. Furthermore, Paramount Business Jets subscribes to ARGUS for their third party safety checks of operators, aircraft, and crews prior each and every flight to and from Lhasa-Gonggar and worldwide.

  • Quote a trip using Lhasa-Gonggar or call us 24/7 - 365 days a year at +1-877-727-2538.
Questions? Call +1-877-727-2538

METAR Weather Data at Lhasa-Gonggar, ZULS

STATIONZULS
OBSERVEDSat Apr 21, 18:00 UTC
NOWMon Jul 22, 09:44 UTC
AGE10959:44 hr ago
WINDENE at 9 mph
VISIBILITY16 miles
METARZULS 211800Z AUTO 06004MPS 010V100 9999 /// ////// 12/M04 Q1020

Call us on +1-877-727-2538 (24 Hours) to Hire a Private Jet or Get a Quick Quote.

Find Airports Near any Location

Processing
...